RJAN(METAR)
04/26 16:00
RJAN 260700Z 09007KT 9999 SCT007 OVC025 16/14 Q1003 RMK A2964=
戻る
トップページへ戻る
IMOC Co,.Ltd.